Time;durP1;ratioP1;P1;durP2;ratioP2;P2;SDS_P1;SDS_P2;PMS_P1;PMS_P2;Temp;Humidity;BMP_temperature;BMP_pressure;BME280_temperature;BME280_humidity;BME280_pressure;Samples;Min_cycle;Max_cycle;Signal;HPM_P1;HPM_P2
2022/08/31 11:00:00;;;;;;;16.75;9.85;;;;;;;18.56;81.36;96930.88;2084401;28;20569;-67
2022/08/31 11:01:33;;;;;;;24.73;11.15;;;;;;;18.56;80.87;96946.75;2084971;28;20236;-67
2022/08/31 11:02:58;;;;;;;20.58;10.95;;;;;;;18.53;83.02;96953.09;2072280;28;20740;-67
2022/08/31 11:04:30;;;;;;;16.83;11.13;;;;;;;18.58;81.44;96948.31;2066926;28;20308;-70
2022/08/31 11:20:41;;;;;;;19.35;10.27;;;;;;;18.85;79.17;96944.59;2089969;28;21017;-67
2022/08/31 11:21:55;;;;;;;17.20;10.20;;;;;;;18.88;79.87;96941.75;2088796;28;20208;-68
2022/08/31 11:52:09;;;;;;;18.75;9.80;;;;;;;19.96;72.76;96916.91;2105579;28;20302;-69
2022/08/31 11:53:42;;;;;;;22.52;9.45;;;;;;;20.02;72.82;96928.81;2116406;27;20896;-69
2022/08/31 11:54:49;;;;;;;12.57;8.25;;;;;;;20.09;73.08;96929.19;2115422;28;20194;-69
2022/08/31 11:55:57;;;;;;;17.38;7.63;;;;;;;20.25;74.16;96936.78;2115310;28;20193;-69
2022/08/31 11:56:59;;;;;;;21.95;8.35;;;;;;;19.82;73.44;96899.44;2111053;28;20206;-70
2022/08/31 11:58:10;;;;;;;18.63;8.98;;;;;;;20.14;75.17;96925.22;2090326;28;20203;-70
2022/08/31 12:04:03;;;;;;;15.85;8.20;;;;;;;20.68;71.89;96925.38;2088822;28;20184;-71
2022/08/31 12:05:06;;;;;;;16.50;7.90;;;;;;;20.70;71.72;96912.81;2089361;28;20651;-70
2022/08/31 12:06:26;;;;;;;12.98;8.43;;;;;;;20.38;71.07;96925.06;2089661;28;20192;-70
2022/08/31 12:07:31;;;;;;;15.68;8.38;;;;;;;19.89;72.78;96921.00;2090060;28;20220;-72
2022/08/31 12:08:45;;;;;;;35.08;9.02;;;;;;;20.11;73.93;96903.41;2089483;28;20195;-72
2022/08/31 12:10:08;;;;;;;18.35;8.27;;;;;;;20.28;72.30;96916.16;2091015;28;20196;-73
2022/08/31 12:11:22;;;;;;;14.60;9.90;;;;;;;19.85;73.03;96896.53;2090287;28;20200;-72
2022/08/31 12:13:01;;;;;;;20.88;9.20;;;;;;;20.27;73.47;96911.00;2090155;28;20597;-72
2022/08/31 12:14:32;;;;;;;13.57;8.18;;;;;;;20.51;71.49;96913.47;2086160;28;20197;-71
2022/08/31 12:16:02;;;;;;;20.52;9.35;;;;;;;19.93;72.34;96914.50;2088192;28;20201;-71
2022/08/31 12:17:15;;;;;;;14.20;8.75;;;;;;;19.57;74.70;96901.31;2091283;28;20294;-71
2022/08/31 12:18:38;;;;;;;13.98;9.25;;;;;;;20.12;74.81;96921.00;2098781;28;20202;-71
2022/08/31 12:19:55;;;;;;;15.45;8.25;;;;;;;20.11;71.20;96921.97;2095888;28;20198;-71
2022/08/31 12:37:32;;;;;;;15.07;8.00;;;;;;;20.00;73.76;96909.56;2051111;27;1284492;-68
2022/08/31 12:38:33;;;;;;;20.23;9.63;;;;;;;20.27;73.54;96914.47;2091910;28;20199;-68
2022/08/31 12:39:34;;;;;;;17.30;8.15;;;;;;;20.31;72.07;96910.59;2092429;28;20199;-70
2022/08/31 12:40:45;;;;;;;15.30;8.27;;;;;;;20.54;71.00;96894.66;2091747;28;20232;-71
2022/08/31 12:41:53;;;;;;;17.77;7.80;;;;;;;20.79;72.04;96911.28;2085944;28;20699;-70
2022/08/31 12:43:15;;;;;;;21.65;8.90;;;;;;;20.86;71.18;96900.03;2087781;28;20231;-70
2022/08/31 12:44:27;;;;;;;15.60;8.10;;;;;;;20.97;70.96;96908.91;2091708;28;20245;-71
2022/08/31 12:52:49;;;;;;;14.00;8.25;;;;;;;21.11;68.16;96902.44;2087242;28;20192;-69
2022/08/31 12:53:50;;;;;;;12.02;7.82;;;;;;;21.34;67.41;96901.38;2064960;28;20209;-69
2022/08/31 12:55:03;;;;;;;15.20;8.23;;;;;;;21.63;65.58;96902.53;2057504;28;20187;-68
2022/08/31 12:56:38;;;;;;;14.32;8.82;;;;;;;21.39;67.72;96895.66;2060033;28;20199;-70
2022/08/31 12:58:03;;;;;;;17.75;7.82;;;;;;;21.89;68.44;96902.94;2059030;28;20223;-71
2022/08/31 12:59:19;;;;;;;24.40;7.80;;;;;;;22.06;65.58;96897.97;2057776;28;20205;-71
2022/08/31 13:00:33;;;;;;;15.23;8.02;;;;;;;22.48;65.02;96898.69;2062813;28;20198;-71
2022/08/31 13:01:42;;;;;;;14.02;7.25;;;;;;;22.31;64.79;96892.19;2063787;28;21030;-70
2022/08/31 13:02:47;;;;;;;13.00;7.00;;;;;;;22.40;65.40;96887.03;2065032;28;20253;-70
2022/08/31 13:03:53;;;;;;;13.65;7.30;;;;;;;22.63;64.96;96891.16;2066146;28;20233;-68
2022/08/31 13:04:55;;;;;;;9.48;6.32;;;;;;;23.17;61.92;96887.28;2067162;28;20205;-69
2022/08/31 13:06:07;;;;;;;11.55;6.70;;;;;;;23.01;62.66;96893.97;2068110;28;20203;-71
2022/08/31 13:07:33;;;;;;;11.60;6.20;;;;;;;23.41;61.17;96889.47;2067816;28;20248;-68
2022/08/31 13:08:42;;;;;;;33.50;22.67;;;;;;;23.60;60.47;96888.59;2059842;28;20826;-70
2022/08/31 13:09:44;;;;;;;18.45;8.88;;;;;;;22.70;59.25;96886.09;2063918;28;20198;-70
2022/08/31 13:10:46;;;;;;;19.30;9.85;;;;;;;22.29;64.19;96896.78;2063988;28;20201;-70
2022/08/31 13:11:51;;;;;;;15.82;8.75;;;;;;;22.34;62.25;96873.28;2064512;28;20251;-68
2022/08/31 13:12:57;;;;;;;16.42;7.53;;;;;;;22.71;63.42;96881.63;2065466;28;20206;-67
2022/08/31 13:14:10;;;;;;;11.20;6.50;;;;;;;22.93;63.86;96889.34;2058176;28;20568;-68
2022/08/31 13:15:25;;;;;;;14.98;5.40;;;;;;;23.06;61.80;96893.53;2059591;28;20222;-66
2022/08/31 13:16:26;;;;;;;16.23;7.57;;;;;;;23.21;62.41;96894.84;2060166;28;20312;-69
2022/08/31 13:17:35;;;;;;;12.35;6.07;;;;;;;23.04;61.03;96883.03;2060489;28;20230;-69
2022/08/31 13:18:40;;;;;;;15.15;9.60;;;;;;;22.85;62.81;96878.56;2065755;28;20217;-70
2022/08/31 13:19:54;;;;;;;86.72;57.70;;;;;;;22.85;62.99;96896.34;2064481;28;20208;-70
2022/08/31 13:21:04;;;;;;;41.65;23.50;;;;;;;22.93;62.79;96884.03;2064769;28;20201;-65
2022/08/31 13:22:15;;;;;;;82.68;60.92;;;;;;;22.95;63.07;96883.88;2065865;28;20206;-65
2022/08/31 13:23:30;;;;;;;40.58;26.15;;;;;;;22.76;64.09;96869.59;2059355;28;20551;-65
2022/08/31 13:24:39;;;;;;;14.63;7.70;;;;;;;23.02;63.53;96890.34;2059679;28;20214;-66
2022/08/31 13:25:41;;;;;;;14.32;6.55;;;;;;;23.13;62.52;96889.34;2081814;28;20199;-65
2022/08/31 13:26:44;;;;;;;10.75;6.65;;;;;;;23.18;62.84;96868.47;2090209;28;20197;-65
2022/08/31 13:27:50;;;;;;;16.10;6.82;;;;;;;23.35;59.28;96896.22;2085701;28;20220;-65
2022/08/31 13:28:59;;;;;;;10.20;6.93;;;;;;;23.25;60.64;96890.91;2086054;28;20201;-65
2022/08/31 13:30:11;;;;;;;12.00;6.07;;;;;;;23.72;61.44;96891.91;2087717;28;20613;-65
2022/08/31 13:31:22;;;;;;;14.40;6.20;;;;;;;24.03;58.22;96886.38;2088137;28;20393;-65
2022/08/31 13:32:31;;;;;;;14.25;7.05;;;;;;;23.95;59.41;96881.78;2087471;28;20220;-64
2022/08/31 13:45:30;;;;;;;9.80;5.78;;;;;;;23.16;60.52;96873.13;2086649;28;20232;-63
2022/08/31 13:46:36;;;;;;;11.90;6.43;;;;;;;22.99;61.26;96874.63;2085016;28;20585;-67
2022/08/31 13:47:55;;;;;;;15.23;6.25;;;;;;;22.58;62.58;96871.25;2085337;28;20270;-67
2022/08/31 13:49:00;;;;;;;11.40;6.82;;;;;;;22.58;61.39;96868.59;2080267;28;20193;-67
2022/08/31 13:50:17;;;;;;;9.75;6.15;;;;;;;22.44;61.32;96853.88;2080708;28;20193;-65
2022/08/31 13:51:33;;;;;;;13.80;6.30;;;;;;;22.27;63.43;96873.97;2078389;28;20235;-65
2022/08/31 13:52:51;;;;;;;19.33;7.03;;;;;;;22.13;64.80;96868.06;2079673;28;20244;-65
2022/08/31 13:54:25;;;;;;;17.42;6.65;;;;;;;21.68;64.85;96874.59;2078666;28;20787;-65
2022/08/31 13:55:41;;;;;;;15.45;6.57;;;;;;;21.63;65.87;96874.13;2078433;28;20576;-65
2022/08/31 13:56:53;;;;;;;12.15;6.30;;;;;;;21.85;65.03;96881.09;2081198;28;20205;-67
2022/08/31 13:58:01;;;;;;;12.32;5.70;;;;;;;21.92;65.21;96869.94;2080667;28;20282;-66
2022/08/31 14:12:08;;;;;;;17.83;6.97;;;;;;;21.95;64.59;96857.22;2105607;27;20554;-66
2022/08/31 14:13:12;;;;;;;48.40;23.35;;;;;;;21.75;66.52;96866.09;2095169;28;20200;-66
2022/08/31 14:14:14;;;;;;;36.05;20.38;;;;;;;21.65;65.80;96858.91;2095048;28;20210;-65
2022/08/31 14:15:32;;;;;;;49.00;29.17;;;;;;;21.67;66.77;96856.13;2094855;28;20224;-67
2022/08/31 14:16:37;;;;;;;21.50;10.90;;;;;;;21.72;65.97;96859.22;2095460;28;20651;-65
2022/08/31 14:17:46;;;;;;;15.38;7.28;;;;;;;21.60;65.31;96857.63;2094573;28;20269;-64
2022/08/31 14:31:36;;;;;;;12.35;6.30;;;;;;;21.57;64.57;96864.03;2084425;28;20559;-66
2022/08/31 14:32:37;;;;;;;12.02;6.75;;;;;;;21.57;64.65;96839.31;2082287;28;20240;-67
2022/08/31 14:33:39;;;;;;;13.75;7.55;;;;;;;21.63;64.29;96855.53;2079982;28;20193;-66
2022/08/31 14:34:45;;;;;;;12.07;7.07;;;;;;;21.67;65.37;96858.78;2080450;28;20196;-67
2022/08/31 14:35:48;;;;;;;11.52;6.53;;;;;;;21.60;65.60;96857.63;2080812;28;20204;-68
2022/08/31 14:36:53;;;;;;;20.58;7.15;;;;;;;21.46;65.23;96864.13;2079443;28;20797;-68
2022/08/31 14:37:54;;;;;;;19.23;7.70;;;;;;;21.48;64.25;96860.34;2082002;28;20197;-65
2022/08/31 14:38:57;;;;;;;16.15;7.50;;;;;;;21.39;63.63;96855.81;2084626;28;20696;-66
2022/08/31 14:49:06;;;;;;;16.40;7.70;;;;;;;21.20;65.04;96843.25;2093519;27;20583;-67
2022/08/31 14:50:10;;;;;;;12.73;6.97;;;;;;;21.30;65.37;96849.47;2092844;28;20892;-67
2022/08/31 15:09:21;;;;;;;14.77;8.35;;;;;;;22.57;61.52;96841.13;2081156;28;20284;-68
2022/08/31 15:10:24;;;;;;;14.20;7.40;;;;;;;22.43;62.06;96834.41;2083289;28;20204;-68
2022/08/31 15:11:26;;;;;;;13.73;8.05;;;;;;;22.23;62.70;96844.13;2082854;28;20219;-68
2022/08/31 15:12:28;;;;;;;24.40;8.98;;;;;;;22.56;61.68;96841.28;2083839;28;20230;-68
2022/08/31 15:13:32;;;;;;;12.38;7.38;;;;;;;22.96;61.05;96837.66;2075772;28;20205;-68
2022/08/31 15:14:35;;;;;;;15.27;7.63;;;;;;;22.97;59.14;96826.84;2075446;28;20198;-68
2022/08/31 15:15:37;;;;;;;13.82;7.88;;;;;;;23.41;59.81;96847.69;2081989;28;20201;-67
2022/08/31 15:16:41;;;;;;;14.88;7.50;;;;;;;23.17;61.61;96847.31;2082154;28;20208;-67
2022/08/31 15:17:43;;;;;;;11.88;7.85;;;;;;;23.34;61.83;96838.59;2082427;28;20278;-67
2022/08/31 15:18:45;;;;;;;17.88;8.20;;;;;;;23.09;62.58;96837.34;2075096;28;20307;-67
2022/08/31 15:19:48;;;;;;;18.02;7.40;;;;;;;23.72;61.96;96831.47;2074420;28;20197;-67
2022/08/31 15:20:50;;;;;;;10.68;6.70;;;;;;;24.17;59.86;96839.72;2084667;28;20704;-67
2022/08/31 15:27:11;;;;;;;25.33;7.97;;;;;;;23.96;58.61;96838.97;2083719;28;20851;-67
2022/08/31 15:28:14;;;;;;;12.48;7.28;;;;;;;24.39;58.42;96835.75;2078317;28;20458;-67
2022/08/31 15:29:16;;;;;;;10.00;6.22;;;;;;;24.26;57.68;96833.47;2077694;28;20223;-67
2022/08/31 15:30:18;;;;;;;11.15;7.40;;;;;;;24.27;58.86;96833.31;2079891;28;20670;-67
2022/08/31 15:31:26;;;;;;;14.50;6.93;;;;;;;24.38;58.67;96829.59;2080268;28;20404;-67
2022/08/31 15:32:27;;;;;;;12.63;6.70;;;;;;;24.51;57.94;96839.91;2080118;28;20225;-67
2022/08/31 15:33:29;;;;;;;13.45;6.75;;;;;;;24.21;58.97;96836.56;2081549;28;20686;-67
2022/08/31 15:34:34;;;;;;;16.52;6.60;;;;;;;24.25;58.95;96824.63;2080579;28;20201;-67
2022/08/31 15:35:40;;;;;;;12.68;7.20;;;;;;;24.17;59.16;96827.19;2080743;28;20219;-67
2022/08/31 15:36:41;;;;;;;13.80;6.88;;;;;;;24.15;60.45;96837.19;2079911;28;20201;-67
2022/08/31 15:37:51;;;;;;;10.65;7.28;;;;;;;23.87;60.65;96822.97;2080364;28;20736;-67
2022/08/31 15:38:55;;;;;;;12.85;7.38;;;;;;;24.10;58.90;96826.97;2081107;28;20331;-67
2022/08/31 15:39:59;;;;;;;14.23;7.38;;;;;;;24.06;59.45;96832.72;2079076;28;20196;-67
2022/08/31 15:41:00;;;;;;;12.13;7.07;;;;;;;24.15;59.56;96815.84;2079583;28;20668;-67
2022/08/31 15:42:08;;;;;;;15.88;6.65;;;;;;;24.18;59.48;96820.06;2079156;28;20283;-67
2022/08/31 15:43:14;;;;;;;9.93;7.00;;;;;;;23.93;59.55;96822.41;2079075;28;20202;-67
2022/08/31 15:44:17;;;;;;;14.63;7.03;;;;;;;23.71;59.77;96824.44;2078374;28;20228;-63
2022/08/31 15:45:20;;;;;;;17.27;7.05;;;;;;;23.42;61.28;96827.22;2080890;28;20200;-63
2022/08/31 15:48:40;;;;;;;13.05;7.18;;;;;;;23.13;62.15;96834.28;2081929;28;20338;-62
2022/08/31 15:49:06;;;;;;;25.42;13.65;;;;;;;22.79;62.22;96829.41;2082521;28;20228;-62
2022/08/31 15:50:08;;;;;;;23.17;10.90;;;;;;;23.00;61.52;96823.06;2083129;28;20197;-63
2022/08/31 15:57:58;;;;;;;13.27;6.63;;;;;;;22.54;63.71;96819.28;2075317;28;20209;-66
2022/08/31 15:59:00;;;;;;;18.52;7.07;;;;;;;22.88;63.55;96805.56;2071063;28;20641;-66
2022/08/31 16:00:03;;;;;;;12.77;8.63;;;;;;;23.07;62.47;96799.38;2069871;28;20202;-66
2022/08/31 16:01:14;;;;;;;14.90;7.97;;;;;;;23.03;62.93;96821.94;2063965;28;20209;-66
2022/08/31 16:02:19;;;;;;;10.63;7.03;;;;;;;22.84;63.31;96818.31;2067790;28;20225;-66
2022/08/31 16:03:21;;;;;;;15.88;8.40;;;;;;;22.41;64.69;96819.56;2069219;28;20205;-66
2022/08/31 16:04:22;;;;;;;12.20;8.57;;;;;;;22.43;64.20;96791.84;2070491;28;20194;-66
2022/08/31 16:05:27;;;;;;;11.23;7.32;;;;;;;22.43;64.08;96820.28;2067549;28;20206;-66
2022/08/31 16:06:31;;;;;;;12.70;7.03;;;;;;;22.52;64.61;96821.25;2066840;28;20198;-66
2022/08/31 16:07:33;;;;;;;13.73;8.23;;;;;;;22.52;64.04;96824.75;2065051;28;20233;-66
2022/08/31 16:08:36;;;;;;;15.25;7.88;;;;;;;22.63;63.79;96819.28;2066897;28;20794;-66
2022/08/31 16:09:44;;;;;;;25.75;7.53;;;;;;;22.67;63.99;96820.69;2068290;28;20199;-66
2022/08/31 16:10:46;;;;;;;16.45;8.30;;;;;;;22.69;64.28;96815.25;2067609;28;20236;-64
2022/08/31 16:11:51;;;;;;;17.63;8.45;;;;;;;22.37;64.81;96810.19;2066973;28;20200;-65
2022/08/31 16:12:53;;;;;;;14.82;8.32;;;;;;;21.84;67.35;96812.97;2068413;28;20679;-65
2022/08/31 16:13:58;;;;;;;14.90;7.72;;;;;;;21.90;67.48;96819.56;2067030;28;20201;-68
2022/08/31 16:15:01;;;;;;;14.68;8.35;;;;;;;21.86;67.36;96810.19;2068463;28;20206;-69
2022/08/31 16:16:03;;;;;;;10.70;7.20;;;;;;;21.80;68.09;96816.88;2068022;28;20206;-68
2022/08/31 16:17:05;;;;;;;12.13;7.95;;;;;;;21.47;68.83;96812.66;2059784;28;20207;-68
2022/08/31 16:18:07;;;;;;;13.85;8.77;;;;;;;21.23;69.52;96816.47;2060548;28;20985;-68
2022/08/31 16:19:11;;;;;;;17.58;8.65;;;;;;;21.26;69.93;96813.53;2063551;28;20673;-68
2022/08/31 16:20:33;;;;;;;14.05;7.85;;;;;;;21.22;69.06;96812.13;2068433;28;20700;-68
2022/08/31 16:21:38;;;;;;;11.45;8.02;;;;;;;21.12;69.47;96814.69;2064552;28;20638;-68
2022/08/31 16:22:41;;;;;;;13.50;8.02;;;;;;;20.92;70.39;96811.06;2064722;28;20234;-68
2022/08/31 16:23:43;;;;;;;21.02;8.85;;;;;;;20.91;70.74;96817.34;2066471;28;20198;-68
2022/08/31 16:24:45;;;;;;;14.75;8.00;;;;;;;20.74;70.89;96809.97;2067412;28;20206;-68
2022/08/31 16:25:47;;;;;;;19.05;9.40;;;;;;;20.66;71.52;96805.28;2068536;28;20210;-68
2022/08/31 16:26:53;;;;;;;14.60;8.50;;;;;;;20.69;71.81;96807.66;2068411;28;20224;-68
2022/08/31 16:27:56;;;;;;;12.90;8.55;;;;;;;20.75;71.25;96809.00;2072620;28;20685;-68
2022/08/31 16:28:59;;;;;;;11.75;9.13;;;;;;;20.67;72.31;96807.81;2071527;28;20194;-68
2022/08/31 16:30:01;;;;;;;15.32;8.80;;;;;;;20.56;72.19;96794.59;2070810;28;20202;-68
2022/08/31 16:31:05;;;;;;;12.07;8.27;;;;;;;20.52;72.73;96801.94;2072097;28;20281;-68
2022/08/31 16:32:08;;;;;;;13.40;9.43;;;;;;;20.52;72.38;96814.38;2064052;28;20727;-69
2022/08/31 16:33:10;;;;;;;19.13;9.68;;;;;;;20.59;72.17;96796.97;2063960;28;20207;-69
2022/08/31 16:34:12;;;;;;;18.08;9.30;;;;;;;20.55;72.62;96795.56;2067029;28;20206;-69
2022/08/31 16:35:14;;;;;;;13.88;9.18;;;;;;;20.85;71.98;96805.44;2068983;28;20206;-70
2022/08/31 16:36:18;;;;;;;20.30;8.18;;;;;;;21.00;71.25;96792.72;2069686;28;20550;-69
2022/08/31 16:37:19;;;;;;;17.05;8.15;;;;;;;21.23;70.51;96799.66;2067179;28;20218;-70
2022/08/31 16:38:21;;;;;;;15.10;9.30;;;;;;;21.46;69.46;96792.41;2067384;28;20205;-67
2022/08/31 16:39:22;;;;;;;16.10;8.85;;;;;;;21.71;69.50;96799.06;2067419;28;20198;-67
2022/08/31 16:40:28;;;;;;;14.57;9.38;;;;;;;21.57;68.79;96796.78;2067657;28;20692;-67
2022/08/31 16:41:31;;;;;;;16.30;9.18;;;;;;;21.27;69.75;96799.28;2068118;28;20217;-67
